Bookmark and Share
Track history (hours):
 

Ital Ordine

Last reported at 2013-Mar-05 07:31 UTC. Time now 2014-Apr-18 00:22 UTC.
Position N 37°57' E 023°36'.
Warning: this ship's position is years out of date!

Length 222 m; draft 8 m.

Type: Ship (hazmat cat A). MMSI: 218654000.

NotesDate/timePositionNaut miles runAvg speedWind from/ knotsBaromVisibWave heightAir tempDewpointWater temp
2013-Mar-05 07:31N 37°57' E 023°36'0 0.0
2013-Mar-05 06:31N 37°57' E 023°36'0 0.0
2013-Mar-05 05:31N 37°57' E 023°36'0 0.0
2013-Mar-05 04:28N 37°57' E 023°36'0 0.0
2013-Mar-05 03:28N 37°57' E 023°36'0 0.0
2013-Mar-05 02:25N 37°57' E 023°36'0 0.0
2013-Mar-05 01:31N 37°57' E 023°36'0 0.0
2013-Mar-05 00:31N 37°57' E 023°36'0 0.0
2013-Mar-04 23:31N 37°57' E 023°36'0 0.0
2013-Mar-04 22:28N 37°57' E 023°36'0 0.0
2013-Mar-04 21:25N 37°57' E 023°36'0 0.6
2013-Mar-04 20:33N 37°57' E 023°36'4 3.9
2013-Mar-04 19:33N 37°53' E 023°38'1414.0
2013-Mar-04 18:33N 37°41' E 023°45'2120.0
2013-Mar-04 17:30N 37°20' E 023°46'2419.9
2013-Mar-04 16:17N 36°55' E 023°47'1619.4
2013-Mar-04 15:26N 36°40' E 023°40'  
2013-Feb-26 19:14N 37°33' E 020°15'15212.6
2013-Feb-26 07:09N 36°59' E 023°21'1219.6
2013-Feb-26 06:33N 37°06' E 023°33'1817.1
2013-Feb-26 05:29N 37°16' E 023°53'1716.7
2013-Feb-26 04:26N 37°29' E 024°06'1617.6
2013-Feb-26 03:32N 37°44' E 024°15'1717.3
2013-Feb-26 02:33N 37°53' E 024°33'2117.2
2013-Feb-26 01:21N 38°12' E 024°43'1417.0
2013-Feb-26 00:32N 38°25' E 024°48'  

Dump ship's entire track history

sailing weather and tide predictions

Ital Ordine — DMYL — position and weather